Time;durP1;ratioP1;P1;durP2;ratioP2;P2;SDS_P1;SDS_P2;PMS_P1;PMS_P2;Temp;Humidity;BMP_temperature;BMP_pressure;BME280_temperature;BME280_humidity;BME280_pressure;Samples;Min_cycle;Max_cycle;Signal;HPM_P1;HPM_P2
2022/02/23 00:00:42;;;;;;;10.93;3.90;;;;;;;2.22;68.32;96387.69;1700515;84;21108;-81
2022/02/23 00:03:09;;;;;;;8.48;5.17;;;;;;;2.20;68.60;96387.81;1700103;84;21120;-83
2022/02/23 00:05:35;;;;;;;9.80;4.47;;;;;;;2.16;68.81;96385.66;1668675;84;21114;-83
2022/02/23 00:08:01;;;;;;;9.55;4.30;;;;;;;2.12;68.79;96374.85;1700396;84;21111;-83
2022/02/23 00:10:26;;;;;;;9.98;4.08;;;;;;;2.10;68.50;96371.11;1700499;84;22277;-83
2022/02/23 00:12:52;;;;;;;9.95;4.05;;;;;;;2.07;68.55;96368.00;1700465;84;21094;-83
2022/02/23 00:15:18;;;;;;;12.70;4.47;;;;;;;2.03;69.02;96361.05;1700596;84;21022;-83
2022/02/23 00:17:44;;;;;;;11.60;4.25;;;;;;;2.02;69.04;96360.70;1700609;84;21338;-83
2022/02/23 00:20:11;;;;;;;13.58;5.35;;;;;;;1.99;68.93;96361.44;1700732;84;21035;-83
2022/02/23 00:22:37;;;;;;;9.50;3.85;;;;;;;1.98;69.04;96354.23;1700261;84;21117;-83
2022/02/23 00:25:03;;;;;;;8.80;4.40;;;;;;;1.99;69.21;96352.47;1700451;84;21059;-83
2022/02/23 00:27:31;;;;;;;8.03;4.28;;;;;;;1.98;68.77;96345.73;1700135;84;21118;-83
2022/02/23 00:29:57;;;;;;;10.45;4.55;;;;;;;1.99;68.95;96349.91;1700405;84;21095;-83
2022/02/23 00:32:22;;;;;;;9.75;4.95;;;;;;;1.99;69.25;96349.91;1700368;84;21066;-84
2022/02/23 00:34:48;;;;;;;11.28;4.60;;;;;;;1.98;68.82;96345.73;1689274;82;21022;-83
2022/02/23 00:37:14;;;;;;;10.35;4.37;;;;;;;1.97;68.77;96350.05;1700289;84;20995;-83
2022/02/23 00:39:40;;;;;;;12.05;4.60;;;;;;;1.98;68.79;96347.01;1700592;84;20971;-83
2022/02/23 00:42:06;;;;;;;9.48;4.37;;;;;;;2.00;68.94;96338.25;1700584;84;20963;-84
2022/02/23 00:44:33;;;;;;;10.60;5.33;;;;;;;2.02;68.64;96335.55;1700743;84;22003;-84
2022/02/23 00:46:59;;;;;;;11.38;4.25;;;;;;;2.04;68.83;96334.95;1700467;84;21058;-83
2022/02/23 00:49:26;;;;;;;10.70;6.22;;;;;;;2.04;68.86;96328.54;1700468;84;20960;-83
2022/02/23 00:51:52;;;;;;;10.98;4.03;;;;;;;2.05;68.68;96325.84;1700550;83;21077;-83
2022/02/23 00:54:18;;;;;;;8.83;3.77;;;;;;;2.07;68.52;96334.68;1701154;84;21014;-84
2022/02/23 00:56:46;;;;;;;11.57;4.28;;;;;;;2.09;68.46;96326.39;1700935;84;21369;-83
2022/02/23 00:59:12;;;;;;;11.88;4.87;;;;;;;2.10;68.37;96320.32;1700885;84;21031;-83
2022/02/23 01:01:38;;;;;;;8.03;3.67;;;;;;;2.14;68.60;96325.55;1701261;84;21002;-83
2022/02/23 01:04:06;;;;;;;9.20;4.25;;;;;;;2.16;68.59;96323.66;1700890;84;21050;-83
2022/02/23 01:06:32;;;;;;;8.28;3.45;;;;;;;2.18;68.42;96315.36;1701085;84;20998;-83
2022/02/23 01:08:58;;;;;;;7.12;3.58;;;;;;;2.21;68.63;96315.09;1701080;84;21018;-83
2022/02/23 01:11:23;;;;;;;9.98;3.70;;;;;;;2.23;68.31;96306.80;1701104;84;20927;-84
2022/02/23 01:13:50;;;;;;;8.80;3.30;;;;;;;2.28;68.21;96296.98;1681168;84;21400;-83
2022/02/23 01:16:17;;;;;;;5.47;2.77;;;;;;;2.32;67.98;96297.05;1700961;84;20967;-83
2022/02/23 01:18:43;;;;;;;7.58;2.83;;;;;;;2.37;68.45;96289.75;1701042;84;21385;-83
2022/02/23 01:21:08;;;;;;;7.55;3.25;;;;;;;2.39;68.48;96277.61;1701149;84;21030;-84
2022/02/23 01:23:34;;;;;;;8.33;3.87;;;;;;;2.43;68.66;96277.33;1701081;84;21025;-83
2022/02/23 01:26:00;;;;;;;10.03;3.45;;;;;;;2.46;68.56;96274.53;1700926;84;21019;-83
2022/02/23 01:28:26;;;;;;;6.95;2.70;;;;;;;2.48;68.57;96282.89;1700975;84;21378;-84
2022/02/23 01:30:52;;;;;;;9.03;2.90;;;;;;;2.50;68.53;96270.27;1701018;84;21030;-83
2022/02/23 01:33:18;;;;;;;9.43;3.98;;;;;;;2.51;68.73;96268.04;1701002;84;21034;-83
2022/02/23 01:35:44;;;;;;;12.03;5.03;;;;;;;2.54;68.81;96270.80;1688432;83;20959;-83
2022/02/23 01:38:09;;;;;;;7.42;3.10;;;;;;;2.57;68.55;96276.94;1700829;84;21349;-83
2022/02/23 01:40:35;;;;;;;9.45;3.05;;;;;;;2.59;68.11;96277.14;1700944;84;20991;-84
2022/02/23 01:43:01;;;;;;;10.43;3.67;;;;;;;2.61;68.61;96279.59;1701124;84;20962;-83
2022/02/23 01:45:27;;;;;;;7.50;3.27;;;;;;;2.61;68.46;96273.19;1681165;84;21014;-83
2022/02/23 01:47:53;;;;;;;6.92;2.95;;;;;;;2.63;68.73;96286.20;1701298;84;21031;-83
2022/02/23 01:50:19;;;;;;;7.70;2.62;;;;;;;2.63;68.73;96270.81;1701159;84;21361;-83
2022/02/23 01:52:44;;;;;;;7.45;3.02;;;;;;;2.66;68.69;96259.47;1689154;84;21007;-84
2022/02/23 01:55:10;;;;;;;8.33;3.30;;;;;;;2.67;68.88;96258.05;1689296;85;21072;-83
2022/02/23 01:57:36;;;;;;;6.55;2.80;;;;;;;2.70;69.12;96255.68;1669501;85;21452;-83
2022/02/23 02:00:05;;;;;;;6.97;2.70;;;;;;;2.72;69.24;96257.63;1689259;84;20951;-83
2022/02/23 02:02:31;;;;;;;4.97;2.95;;;;;;;2.73;69.37;96265.66;1689124;84;21036;-83
2022/02/23 02:04:56;;;;;;;6.80;3.15;;;;;;;2.76;69.66;96253.84;1669438;85;21373;-83
2022/02/23 02:07:22;;;;;;;6.20;3.15;;;;;;;2.78;69.90;96246.84;1689148;85;20980;-83
2022/02/23 02:09:48;;;;;;;6.95;3.27;;;;;;;2.80;70.05;96247.98;1689349;85;21008;-84
2022/02/23 02:12:14;;;;;;;4.20;2.75;;;;;;;2.82;70.48;96237.11;1689140;85;21422;-83
2022/02/23 02:14:39;;;;;;;3.85;2.67;;;;;;;2.83;70.58;96238.25;1689212;85;21002;-83
2022/02/23 02:17:05;;;;;;;5.85;2.87;;;;;;;2.85;70.75;96234.27;1689367;85;20991;-83
2022/02/23 02:19:31;;;;;;;6.65;2.62;;;;;;;2.84;70.65;96233.45;1689213;85;21405;-83
2022/02/23 02:22:05;;;;;;;8.00;3.77;;;;;;;2.84;70.88;96239.87;1689113;84;21094;-83
2022/02/23 02:24:36;;;;;;;6.20;2.42;;;;;;;2.83;70.81;96236.16;1689194;84;21019;-85
2022/02/23 02:27:04;;;;;;;5.75;2.75;;;;;;;2.78;71.21;96219.91;1688512;85;21043;-84
2022/02/23 02:29:30;;;;;;;7.17;4.25;;;;;;;2.75;72.03;96216.30;1689182;84;21019;-84
2022/02/23 02:31:56;;;;;;;5.53;4.20;;;;;;;2.76;72.70;96208.94;1689231;84;21035;-84
2022/02/23 02:34:22;;;;;;;6.15;3.17;;;;;;;2.82;72.94;96211.45;1686665;83;21365;-84
2022/02/23 02:36:48;;;;;;;6.15;3.52;;;;;;;2.85;73.01;96227.38;1689063;85;21003;-83
2022/02/23 02:39:17;;;;;;;4.85;2.98;;;;;;;2.90;73.66;96226.48;1688918;85;21038;-83
2022/02/23 02:41:43;;;;;;;5.45;2.75;;;;;;;2.94;74.28;96229.13;1689225;84;20998;-84
2022/02/23 02:44:08;;;;;;;2.87;2.22;;;;;;;3.00;74.20;96234.17;1689339;84;20971;-83
2022/02/23 02:46:35;;;;;;;4.25;3.00;;;;;;;3.06;74.25;96233.61;1688926;85;21047;-83
2022/02/23 02:49:01;;;;;;;3.10;2.12;;;;;;;3.12;74.23;96233.55;1689153;85;20952;-84
2022/02/23 02:51:27;;;;;;;5.55;3.65;;;;;;;3.17;74.59;96230.88;1689024;84;21051;-84
2022/02/23 02:53:52;;;;;;;3.42;2.45;;;;;;;3.17;74.58;96241.16;1689052;85;21003;-83
2022/02/23 02:56:18;;;;;;;4.45;2.37;;;;;;;3.19;75.46;96223.84;1689177;84;21389;-83
2022/02/23 02:58:49;;;;;;;4.45;2.30;;;;;;;3.19;75.41;96244.39;1689372;84;20999;-84
2022/02/23 03:01:12;;;;;;;5.33;2.72;;;;;;;3.24;75.36;96233.69;1688655;85;21000;-84
2022/02/23 03:03:37;;;;;;;3.72;1.85;;;;;;;3.27;75.13;96235.53;1689154;85;21014;-84
2022/02/23 03:06:03;;;;;;;3.92;2.67;;;;;;;3.29;75.54;96230.25;1669387;85;21019;-84
2022/02/23 03:08:29;;;;;;;3.80;2.10;;;;;;;3.31;75.60;96225.78;1689334;84;21331;-84
2022/02/23 03:10:55;;;;;;;3.72;2.30;;;;;;;3.31;75.97;96221.92;1689022;84;21095;-83
2022/02/23 03:13:20;;;;;;;3.25;2.30;;;;;;;3.31;76.23;96214.22;1689133;84;21062;-83
2022/02/23 03:15:46;;;;;;;4.87;2.92;;;;;;;3.32;76.34;96215.84;1689228;85;20983;-84
2022/02/23 03:18:12;;;;;;;4.75;2.75;;;;;;;3.34;77.12;96214.41;1689254;85;20999;-84
2022/02/23 03:20:38;;;;;;;7.95;4.30;;;;;;;3.38;76.75;96214.45;1689142;85;21010;-83
2022/02/23 03:23:03;;;;;;;6.05;3.98;;;;;;;3.40;76.86;96208.22;1689064;85;21445;-84
2022/02/23 03:25:29;;;;;;;2.72;2.05;;;;;;;3.45;76.90;96212.95;1689108;85;21042;-83
2022/02/23 03:27:55;;;;;;;5.42;2.80;;;;;;;3.47;77.77;96207.20;1689203;84;20979;-83
2022/02/23 03:30:20;;;;;;;3.33;2.10;;;;;;;3.48;77.45;96212.20;1689029;84;20995;-83
2022/02/23 03:32:46;;;;;;;6.05;2.45;;;;;;;3.52;77.20;96213.52;1689229;84;20988;-84
2022/02/23 03:35:13;;;;;;;3.95;2.40;;;;;;;3.55;77.68;96218.37;1676558;83;21030;-83
2022/02/23 03:37:39;;;;;;;4.72;3.58;;;;;;;3.58;77.84;96219.87;1689076;85;21043;-83
2022/02/23 03:40:05;;;;;;;5.08;3.22;;;;;;;3.57;77.98;96220.80;1689159;84;21003;-83
2022/02/23 03:42:32;;;;;;;3.98;3.27;;;;;;;3.53;78.17;96216.89;1689183;85;20979;-83
2022/02/23 03:44:58;;;;;;;3.95;2.40;;;;;;;3.50;78.21;96221.84;1689270;85;21059;-83
2022/02/23 03:47:24;;;;;;;3.85;2.60;;;;;;;3.51;78.45;96214.95;1689239;85;21006;-83
2022/02/23 03:49:49;;;;;;;5.35;1.98;;;;;;;3.53;78.52;96215.61;1689265;85;21436;-84
2022/02/23 03:52:15;;;;;;;2.90;2.00;;;;;;;3.55;79.13;96225.27;1695949;84;21120;-84
2022/02/23 03:54:41;;;;;;;4.58;2.33;;;;;;;3.53;78.77;96227.98;1701135;84;21041;-83
2022/02/23 03:57:06;;;;;;;4.05;2.05;;;;;;;3.53;78.87;96240.83;1701264;84;21026;-83
2022/02/23 03:59:32;;;;;;;7.47;3.67;;;;;;;3.51;79.56;96223.94;1701343;84;21738;-83
2022/02/23 04:01:58;;;;;;;5.83;3.62;;;;;;;3.47;79.69;96246.54;1701155;84;22056;-84
2022/02/23 04:04:23;;;;;;;4.20;2.98;;;;;;;3.45;80.28;96238.64;1701229;84;20975;-83
2022/02/23 04:06:49;;;;;;;4.05;2.60;;;;;;;3.41;80.56;96248.37;1701109;84;20932;-83
2022/02/23 04:09:16;;;;;;;4.67;2.55;;;;;;;3.41;80.34;96257.83;1701155;84;21038;-83
2022/02/23 04:11:41;;;;;;;4.55;2.60;;;;;;;3.37;81.45;96258.59;1701225;84;20991;-83
2022/02/23 04:14:07;;;;;;;5.20;2.87;;;;;;;3.36;81.34;96259.55;1701183;84;21030;-83
2022/02/23 04:16:34;;;;;;;3.52;3.20;;;;;;;3.36;81.39;96269.01;1701194;84;21382;-83
2022/02/23 04:18:59;;;;;;;4.20;2.30;;;;;;;3.36;81.94;96261.30;1701115;84;21030;-83
2022/02/23 04:21:26;;;;;;;3.35;2.35;;;;;;;3.36;81.69;96269.81;1700728;84;21338;-83
2022/02/23 04:23:52;;;;;;;3.85;2.30;;;;;;;3.37;81.63;96270.62;1701184;84;20986;-83
2022/02/23 04:26:18;;;;;;;2.10;1.50;;;;;;;3.38;81.72;96270.48;1701230;84;21006;-83
2022/02/23 04:28:45;;;;;;;4.75;2.98;;;;;;;3.41;81.88;96276.63;1701064;84;20967;-84
2022/02/23 04:31:11;;;;;;;3.92;2.87;;;;;;;3.44;81.82;96280.22;1700964;84;21003;-84
2022/02/23 04:33:37;;;;;;;3.67;2.27;;;;;;;3.45;82.60;96285.69;1700570;83;20990;-83
2022/02/23 04:36:05;;;;;;;3.35;2.40;;;;;;;3.44;82.06;96289.69;1688901;84;21098;-83
2022/02/23 04:38:30;;;;;;;4.08;2.45;;;;;;;3.44;82.32;96293.53;1701064;84;21058;-84
2022/02/23 04:40:56;;;;;;;2.67;2.20;;;;;;;3.43;82.25;96298.34;1701191;84;20994;-83
2022/02/23 04:43:22;;;;;;;4.12;2.42;;;;;;;3.43;82.38;96302.19;1701093;84;21389;-83
2022/02/23 04:45:50;;;;;;;2.33;2.08;;;;;;;3.44;82.56;96304.63;1700821;84;21028;-83
2022/02/23 04:48:16;;;;;;;4.03;2.10;;;;;;;3.43;82.85;96310.70;1701125;84;21018;-84
2022/02/23 04:50:42;;;;;;;4.15;2.42;;;;;;;3.43;82.75;96311.19;1700915;84;21369;-84
2022/02/23 04:53:08;;;;;;;3.85;2.50;;;;;;;3.39;83.22;96316.23;1700412;84;21078;-84
2022/02/23 04:55:35;;;;;;;3.45;2.37;;;;;;;3.37;83.26;96315.57;1700532;84;21034;-84
2022/02/23 04:58:07;;;;;;;2.40;2.20;;;;;;;3.34;83.87;96319.70;1700403;84;21019;-84
2022/02/23 05:00:32;;;;;;;5.05;2.33;;;;;;;3.32;83.54;96324.98;1700505;84;21008;-85
2022/02/23 05:02:58;;;;;;;2.62;2.30;;;;;;;3.34;83.66;96323.56;1700388;84;21034;-84
2022/02/23 05:05:23;;;;;;;3.72;2.05;;;;;;;3.36;83.66;96330.17;1700537;84;21399;-84
2022/02/23 05:07:49;;;;;;;2.87;2.00;;;;;;;3.39;83.87;96333.75;1700413;84;21067;-84
2022/02/23 05:10:15;;;;;;;5.10;2.80;;;;;;;3.42;84.03;96338.62;1700672;84;20991;-83
2022/02/23 05:12:40;;;;;;;7.08;5.20;;;;;;;3.43;84.07;96348.42;1668665;84;20987;-84
2022/02/23 05:15:07;;;;;;;4.10;3.15;;;;;;;3.44;84.80;96343.63;1700376;84;21023;-84
2022/02/23 05:17:33;;;;;;;3.65;3.20;;;;;;;3.41;84.57;96339.55;1668692;84;21621;-84
2022/02/23 05:19:59;;;;;;;3.47;2.40;;;;;;;3.40;84.69;96335.84;1700565;84;21075;-84
2022/02/23 05:22:25;;;;;;;4.40;2.90;;;;;;;3.39;84.44;96341.45;1700448;84;21178;-84
2022/02/23 05:24:50;;;;;;;1.70;1.50;;;;;;;3.42;84.48;96332.69;1700838;84;21082;-84
2022/02/23 05:27:16;;;;;;;6.95;3.72;;;;;;;3.44;84.79;96339.30;1700548;84;21580;-83
2022/02/23 05:29:42;;;;;;;6.53;5.37;;;;;;;3.45;84.82;96346.53;1700751;84;21022;-83
2022/02/23 05:32:08;;;;;;;7.05;4.17;;;;;;;3.44;85.14;96338.02;1700599;84;21027;-83
2022/02/23 05:34:33;;;;;;;10.50;7.70;;;;;;;3.45;85.26;96346.05;1700765;84;20983;-83
2022/02/23 05:36:59;;;;;;;5.42;3.30;;;;;;;3.48;84.82;96341.11;1700558;84;21019;-83
2022/02/23 05:39:25;;;;;;;6.53;4.83;;;;;;;3.52;85.33;96345.82;1700786;84;20988;-83
2022/02/23 05:41:51;;;;;;;3.17;1.85;;;;;;;3.58;84.75;96355.56;1668968;84;21028;-83
2022/02/23 05:44:17;;;;;;;17.20;8.30;;;;;;;3.65;84.80;96349.86;1700759;84;21379;-83
2022/02/23 05:46:43;;;;;;;220.90;112.10;;;;;;;3.71;84.70;96348.00;1700431;84;21135;-83
2022/02/23 05:49:09;;;;;;;55.10;25.25;;;;;;;3.74;84.59;96349.00;1700731;84;21091;-83
2022/02/23 05:51:38;;;;;;;42.70;20.95;;;;;;;3.77;84.55;96357.74;1700649;83;21054;-83
2022/02/23 05:54:04;;;;;;;14.78;8.10;;;;;;;3.79;84.63;96360.98;1700603;84;21070;-83
2022/02/23 05:56:30;;;;;;;41.70;17.05;;;;;;;3.79;84.80;96363.55;1700796;84;21088;-83
2022/02/23 05:58:55;;;;;;;25.57;10.88;;;;;;;3.78;84.66;96365.31;1700533;84;21504;-83
2022/02/23 06:01:21;;;;;;;43.85;16.93;;;;;;;3.81;84.59;96366.31;1700702;84;21048;-84
2022/02/23 06:03:47;;;;;;;17.62;7.95;;;;;;;3.85;84.55;96379.20;1700666;84;21035;-83
2022/02/23 06:06:13;;;;;;;8.88;3.83;;;;;;;3.86;84.53;96392.39;1700746;84;21001;-83
2022/02/23 06:08:39;;;;;;;8.23;4.97;;;;;;;3.88;84.51;96399.96;1700646;84;21433;-83
2022/02/23 06:11:05;;;;;;;9.90;4.42;;;;;;;3.85;84.99;96416.95;1700630;84;20991;-83
2022/02/23 06:13:31;;;;;;;6.28;3.47;;;;;;;3.82;84.73;96421.09;1700716;84;21331;-84
2022/02/23 06:15:57;;;;;;;4.35;2.65;;;;;;;3.85;84.91;96434.47;1700624;84;21050;-84
2022/02/23 06:18:23;;;;;;;8.10;4.55;;;;;;;3.87;84.74;96438.19;1700716;84;21038;-83
2022/02/23 06:20:48;;;;;;;21.62;12.78;;;;;;;3.91;84.57;96447.27;1700562;84;21389;-83
2022/02/23 06:23:14;;;;;;;16.23;11.55;;;;;;;3.93;85.00;96447.94;1668615;84;21066;-83
2022/02/23 06:25:40;;;;;;;7.37;5.10;;;;;;;3.93;84.74;96463.36;1646158;84;21046;-83
2022/02/23 06:28:06;;;;;;;4.72;3.70;;;;;;;3.90;85.49;96487.59;1700712;84;21111;-84
2022/02/23 06:30:31;;;;;;;6.92;3.25;;;;;;;3.85;85.29;96494.06;1700797;84;21339;-84
2022/02/23 06:32:57;;;;;;;5.75;3.70;;;;;;;3.81;85.82;96509.44;1700531;84;20998;-84
2022/02/23 06:35:24;;;;;;;6.85;3.87;;;;;;;3.76;85.69;96518.84;1700648;84;20951;-85
2022/02/23 06:37:51;;;;;;;5.22;3.35;;;;;;;3.71;85.70;96527.41;1700554;84;21380;-84
2022/02/23 06:40:17;;;;;;;6.92;3.40;;;;;;;3.68;85.48;96523.84;1668760;84;21385;-84
2022/02/23 06:42:42;;;;;;;6.25;3.55;;;;;;;3.66;85.51;96540.34;1700658;84;21022;-84
2022/02/23 06:45:09;;;;;;;10.98;7.05;;;;;;;3.61;85.72;96547.17;1700654;84;21078;-84
2022/02/23 06:47:35;;;;;;;9.23;5.22;;;;;;;3.54;85.38;96558.92;1700477;84;21131;-84
2022/02/23 06:50:01;;;;;;;11.55;8.55;;;;;;;3.51;85.59;96557.91;1700641;84;21071;-84
2022/02/23 06:52:28;;;;;;;11.85;8.05;;;;;;;3.47;85.75;96563.79;1700617;84;21106;-84
2022/02/23 06:54:55;;;;;;;30.15;18.30;;;;;;;3.45;85.60;96568.73;1700985;84;21389;-83
2022/02/23 06:57:21;;;;;;;27.37;15.28;;;;;;;3.45;85.87;96573.39;1701064;84;21022;-84
2022/02/23 06:59:47;;;;;;;13.30;5.95;;;;;;;3.43;85.59;96580.42;1701233;84;21014;-84
2022/02/23 07:02:13;;;;;;;7.90;4.17;;;;;;;3.40;85.35;96580.66;1658488;84;21560;-84
2022/02/23 07:04:39;;;;;;;8.35;4.35;;;;;;;3.37;85.53;96598.09;1700701;83;20993;-84
2022/02/23 07:07:05;;;;;;;9.93;4.17;;;;;;;3.36;85.49;96599.86;1701226;84;21042;-84
2022/02/23 07:09:32;;;;;;;10.90;4.80;;;;;;;3.38;85.59;96605.67;1701046;84;21030;-84
2022/02/23 07:11:57;;;;;;;6.80;3.92;;;;;;;3.40;85.42;96603.78;1701075;84;21063;-83
2022/02/23 07:14:23;;;;;;;59.00;22.07;;;;;;;3.42;85.43;96611.38;1701224;84;20974;-83
2022/02/23 07:16:49;;;;;;;12.90;6.17;;;;;;;3.42;85.16;96617.33;1701086;84;21314;-84
2022/02/23 07:19:16;;;;;;;17.20;8.35;;;;;;;3.41;84.86;96619.53;1681359;84;21026;-83
2022/02/23 07:21:42;;;;;;;12.63;7.55;;;;;;;3.43;84.82;96629.23;1701022;84;21049;-83
2022/02/23 07:24:08;;;;;;;11.68;6.30;;;;;;;3.44;84.82;96627.47;1700919;84;21069;-83
2022/02/23 07:26:33;;;;;;;15.10;5.97;;;;;;;3.46;85.26;96635.38;1701166;84;20986;-82
2022/02/23 07:28:59;;;;;;;10.20;6.20;;;;;;;3.45;84.74;96636.33;1701114;84;21408;-83
2022/02/23 07:31:26;;;;;;;12.53;5.10;;;;;;;3.48;84.68;96642.95;1701080;84;21015;-83
2022/02/23 07:33:52;;;;;;;15.23;5.92;;;;;;;3.51;84.52;96651.20;1701303;84;21047;-84
2022/02/23 07:36:18;;;;;;;13.72;5.42;;;;;;;3.51;84.95;96661.48;1701167;84;21066;-84
2022/02/23 07:38:45;;;;;;;13.22;4.75;;;;;;;3.48;84.16;96657.08;1701085;84;21070;-83
2022/02/23 07:41:13;;;;;;;15.25;6.50;;;;;;;3.43;83.83;96660.05;1701062;84;20970;-84
2022/02/23 07:43:39;;;;;;;26.65;8.73;;;;;;;3.40;84.21;96657.72;1701103;84;20994;-84
2022/02/23 07:46:10;;;;;;;13.20;4.80;;;;;;;3.43;84.08;96673.38;1701146;84;21026;-83
2022/02/23 07:48:37;;;;;;;18.12;6.05;;;;;;;3.44;83.38;96685.27;1700814;84;21007;-84
2022/02/23 07:51:04;;;;;;;15.25;5.75;;;;;;;3.44;83.48;96697.64;1701142;84;20995;-84
2022/02/23 07:53:31;;;;;;;13.10;4.10;;;;;;;3.49;83.29;96705.77;1692940;84;21061;-84
2022/02/23 07:55:57;;;;;;;11.12;4.08;;;;;;;3.50;82.77;96713.00;1689323;85;21003;-83
2022/02/23 07:58:23;;;;;;;12.90;4.25;;;;;;;3.54;83.24;96722.06;1688948;85;21012;-83
2022/02/23 08:00:49;;;;;;;12.47;5.08;;;;;;;3.55;82.94;96730.92;1689265;84;20999;-84
2022/02/23 08:03:14;;;;;;;12.37;4.65;;;;;;;3.59;83.05;96731.03;1689286;85;20983;-84
2022/02/23 08:05:42;;;;;;;12.78;4.20;;;;;;;3.65;82.66;96729.69;1687755;83;21050;-83
2022/02/23 08:08:09;;;;;;;13.05;5.05;;;;;;;3.68;81.97;96740.17;1689068;85;21003;-84
2022/02/23 08:10:34;;;;;;;10.50;4.30;;;;;;;3.68;81.74;96751.73;1669477;85;20963;-84
2022/02/23 08:13:04;;;;;;;16.87;5.87;;;;;;;3.70;81.41;96753.70;1689098;84;21289;-83
2022/02/23 08:20:56;;;;;;;16.85;6.20;;;;;;;3.71;80.81;96758.71;1689205;84;21015;-83
2022/02/23 08:23:22;;;;;;;9.38;4.37;;;;;;;3.78;81.10;96765.45;1689116;84;21408;-84
2022/02/23 08:25:48;;;;;;;13.62;4.80;;;;;;;3.82;79.59;96773.23;1689264;84;20972;-83
2022/02/23 08:28:15;;;;;;;12.63;5.22;;;;;;;3.84;80.28;96784.20;1689108;84;21014;-84
2022/02/23 08:30:41;;;;;;;19.15;7.22;;;;;;;3.85;79.75;96793.53;1689155;85;21079;-83
2022/02/23 08:33:07;;;;;;;13.00;5.62;;;;;;;3.83;79.56;96795.42;1689038;85;20968;-84
2022/02/23 08:35:33;;;;;;;13.22;5.20;;;;;;;3.84;80.12;96804.76;1689202;84;22020;-84
2022/02/23 08:37:58;;;;;;;12.55;3.62;;;;;;;3.86;78.91;96806.73;1689159;85;21078;-84
2022/02/23 08:40:24;;;;;;;12.15;4.33;;;;;;;3.89;78.59;96803.89;1689136;84;20987;-83
2022/02/23 08:42:50;;;;;;;9.53;3.75;;;;;;;3.93;79.21;96804.00;1688865;84;21091;-84
2022/02/23 08:45:16;;;;;;;18.42;6.85;;;;;;;3.91;78.64;96816.98;1689173;85;21461;-84
2022/02/23 08:47:42;;;;;;;15.63;7.28;;;;;;;3.90;79.00;96817.09;1688994;85;20963;-83
2022/02/23 08:50:08;;;;;;;17.27;5.12;;;;;;;3.88;78.76;96823.64;1689365;84;21064;-84
2022/02/23 08:52:34;;;;;;;13.30;3.90;;;;;;;3.77;78.49;96836.61;1688923;84;21042;-84
2022/02/23 08:55:00;;;;;;;15.10;4.58;;;;;;;3.66;78.98;96835.86;1689409;85;21066;-84
2022/02/23 08:57:26;;;;;;;11.93;5.65;;;;;;;3.51;78.88;96822.53;1689274;85;21362;-83
2022/02/23 08:59:51;;;;;;;12.53;3.92;;;;;;;3.45;79.02;96823.05;1689145;85;20963;-84
2022/02/23 09:02:17;;;;;;;11.18;3.83;;;;;;;3.40;79.30;96829.02;1689373;84;20999;-84
2022/02/23 09:04:43;;;;;;;17.32;4.35;;;;;;;3.37;79.45;96831.37;1689110;84;21067;-83
2022/02/23 09:07:10;;;;;;;14.30;5.15;;;;;;;3.32;79.37;96834.80;1689181;84;20983;-84
2022/02/23 09:09:37;;;;;;;22.15;9.23;;;;;;;3.30;79.61;96845.20;1689210;85;21014;-84
2022/02/23 09:12:04;;;;;;;36.90;16.80;;;;;;;3.31;80.14;96849.39;1689429;84;20971;-84
2022/02/23 09:14:30;;;;;;;16.82;6.28;;;;;;;3.32;80.33;96843.78;1689260;84;21353;-84
2022/02/23 09:16:56;;;;;;;15.83;5.12;;;;;;;3.36;80.09;96847.72;1689343;84;20999;-83
2022/02/23 09:19:22;;;;;;;9.78;4.05;;;;;;;3.43;79.87;96842.44;1689393;84;21007;-83
2022/02/23 09:21:47;;;;;;;14.38;5.22;;;;;;;3.50;79.60;96849.16;1689289;85;20959;-84
2022/02/23 09:24:13;;;;;;;14.68;6.37;;;;;;;3.53;79.58;96854.86;1646999;85;21444;-83
2022/02/23 09:26:39;;;;;;;11.48;3.65;;;;;;;3.55;79.08;96855.55;1689192;85;20975;-83
2022/02/23 09:29:04;;;;;;;13.43;5.35;;;;;;;3.58;78.95;96854.50;1689158;85;20975;-84
2022/02/23 09:31:31;;;;;;;15.13;4.95;;;;;;;3.56;78.11;96857.64;1689291;85;20998;-84
2022/02/23 09:33:59;;;;;;;11.60;4.83;;;;;;;3.54;78.73;96860.81;1682726;83;21083;-83
2022/02/23 09:36:25;;;;;;;10.03;3.45;;;;;;;3.57;77.68;96856.70;1686160;84;21326;-84
2022/02/23 09:38:53;;;;;;;10.60;4.55;;;;;;;3.61;77.55;96856.81;1688914;84;21094;-84
2022/02/23 09:41:21;;;;;;;15.38;5.40;;;;;;;3.68;77.99;96855.34;1689196;85;21015;-84
2022/02/23 09:43:48;;;;;;;17.35;6.22;;;;;;;3.77;77.71;96857.64;1689262;85;20944;-84
2022/02/23 09:46:21;;;;;;;13.55;5.20;;;;;;;3.83;78.06;96858.41;1689184;85;22002;-84
2022/02/23 09:48:49;;;;;;;30.40;17.30;;;;;;;3.87;77.82;96860.58;1689373;84;21064;-84
2022/02/23 09:51:15;;;;;;;20.75;10.68;;;;;;;3.88;77.78;96866.06;1689250;85;21484;-84
2022/02/23 09:53:45;;;;;;;13.22;7.20;;;;;;;3.88;78.07;96865.25;1688955;85;21073;-84
2022/02/23 09:56:08;;;;;;;14.10;4.67;;;;;;;3.89;77.67;96864.30;1688932;85;21390;-84
2022/02/23 09:58:34;;;;;;;12.35;5.12;;;;;;;3.89;76.72;96865.12;1689391;84;21026;-84
2022/02/23 10:01:00;;;;;;;11.05;4.87;;;;;;;3.95;77.02;96868.95;1689204;85;21066;-84
2022/02/23 10:03:26;;;;;;;13.43;5.65;;;;;;;4.00;76.43;96868.09;1689325;84;21040;-84
2022/02/23 10:05:52;;;;;;;12.03;5.62;;;;;;;4.03;76.58;96871.68;1689296;85;21042;-84
2022/02/23 10:08:17;;;;;;;22.13;9.38;;;;;;;4.05;76.66;96873.65;1689275;84;21058;-84
2022/02/23 10:10:48;;;;;;;9.93;4.78;;;;;;;4.08;76.59;96874.70;1689116;85;21006;-84
2022/02/23 10:13:14;;;;;;;11.15;5.35;;;;;;;4.12;76.34;96872.67;1670142;85;21378;-84
2022/02/23 10:15:42;;;;;;;22.35;11.15;;;;;;;4.15;75.62;96874.52;1669406;85;21029;-84
2022/02/23 10:18:26;;;;;;;13.65;5.42;;;;;;;4.25;76.55;96867.31;1689353;85;21046;-84
2022/02/23 10:20:43;;;;;;;12.23;5.22;;;;;;;4.36;75.95;96875.72;1687495;85;21095;-84
2022/02/23 10:23:18;;;;;;;14.80;6.58;;;;;;;4.40;75.91;96873.25;1689255;85;21087;-84
2022/02/23 10:25:44;;;;;;;8.80;4.87;;;;;;;4.46;75.31;96870.62;1689089;85;21031;-84
2022/02/23 10:28:17;;;;;;;11.73;4.92;;;;;;;4.45;75.02;96876.23;1689229;84;20952;-84
2022/02/23 10:30:58;;;;;;;11.25;5.03;;;;;;;4.43;75.27;96872.17;1689196;84;20951;-84
2022/02/23 10:33:32;;;;;;;10.15;4.10;;;;;;;4.39;74.45;96881.08;1685029;83;21059;-84
2022/02/23 10:36:07;;;;;;;10.50;5.00;;;;;;;4.30;74.77;96883.16;1684754;84;20998;-84
2022/02/23 10:38:39;;;;;;;9.88;5.33;;;;;;;4.22;74.90;96887.19;1689244;85;21014;-84
2022/02/23 10:41:07;;;;;;;10.35;3.83;;;;;;;4.15;74.66;96892.52;1689427;84;21007;-84
2022/02/23 10:43:37;;;;;;;15.63;6.78;;;;;;;4.10;75.14;96892.57;1689090;85;21010;-83
2022/02/23 10:46:11;;;;;;;22.27;7.72;;;;;;;4.02;75.21;96902.67;1688690;85;20987;-84
2022/02/23 10:48:43;;;;;;;19.27;7.20;;;;;;;3.96;75.74;96910.91;1688435;85;21027;-83
2022/02/23 10:51:15;;;;;;;15.70;6.17;;;;;;;3.93;76.29;96904.73;1689229;84;21018;-84
2022/02/23 10:53:41;;;;;;;13.93;5.67;;;;;;;3.93;76.85;96911.17;1689083;84;21090;-84
2022/02/23 10:56:27;;;;;;;19.70;6.80;;;;;;;3.91;76.93;96912.11;1689141;85;21019;-84
2022/02/23 10:59:17;;;;;;;14.85;5.62;;;;;;;4.00;77.19;96904.55;1689030;84;21074;-84
2022/02/23 11:01:45;;;;;;;10.08;5.42;;;;;;;4.09;76.70;96902.52;1689322;84;21253;-84
2022/02/23 11:04:11;;;;;;;16.42;6.55;;;;;;;4.19;76.42;96907.21;1689151;85;21039;-84
2022/02/23 11:06:37;;;;;;;20.35;8.15;;;;;;;4.27;76.65;96904.01;1689136;85;21098;-84
2022/02/23 11:09:04;;;;;;;15.93;7.47;;;;;;;4.38;77.00;96903.89;1689147;84;21415;-84
2022/02/23 11:11:30;;;;;;;12.55;5.55;;;;;;;4.50;77.30;96906.72;1689106;83;21054;-84
2022/02/23 11:13:57;;;;;;;9.83;4.92;;;;;;;4.59;76.14;96911.09;1689232;84;21341;-84
2022/02/23 11:16:23;;;;;;;10.50;4.85;;;;;;;4.63;76.39;96900.05;1689276;84;20988;-84
2022/02/23 11:18:49;;;;;;;13.65;4.67;;;;;;;4.70;77.07;96908.39;1689317;85;21386;-84
2022/02/23 11:21:17;;;;;;;10.15;4.65;;;;;;;4.75;75.42;96911.40;1689012;84;21003;-84
2022/02/23 11:23:45;;;;;;;9.33;4.28;;;;;;;4.80;75.65;96909.23;1689163;84;21031;-84
2022/02/23 11:26:15;;;;;;;10.58;4.58;;;;;;;4.85;75.21;96904.96;1689226;84;21019;-84
2022/02/23 11:29:06;;;;;;;11.18;4.10;;;;;;;4.88;75.49;96910.31;1669826;85;21042;-84
2022/02/23 11:31:36;;;;;;;8.50;4.28;;;;;;;4.94;74.79;96905.46;1689214;84;20984;-84
2022/02/23 11:34:03;;;;;;;10.03;4.45;;;;;;;5.02;76.11;96912.03;1689144;84;21047;-84
2022/02/23 11:36:38;;;;;;;13.35;5.00;;;;;;;5.06;75.21;96919.03;1669140;85;21921;-84
2022/02/23 11:39:09;;;;;;;11.90;4.58;;;;;;;5.07;73.16;96914.22;1689059;84;21075;-84